Time;durP1;ratioP1;P1;durP2;ratioP2;P2;SDS_P1;SDS_P2;PMS_P1;PMS_P2;Temp;Humidity;BMP_temperature;BMP_pressure;BME280_temperature;BME280_humidity;BME280_pressure;Samples;Min_cycle;Max_cycle;Signal;HPM_P1;HPM_P2
2023/12/03 00:00:14;;;;;;;;;;;;;;;1.90;66.80;99316.94;4416569;32;34483;-80
2023/12/03 00:02:42;;;;;;;;;;;;;;;2.17;65.56;99341.88;4415309;32;33654;-80
2023/12/03 00:05:10;;;;;;;;;;;;;;;2.06;65.53;99326.56;4411608;32;34996;-80
2023/12/03 00:07:37;;;;;;;;;;;;;;;2.04;65.47;99349.44;4416780;32;34160;-80
2023/12/03 00:10:05;;;;;;;;;;;;;;;1.98;65.46;99348.13;4400495;32;34575;-80
2023/12/03 00:12:32;;;;;;;;;;;;;;;1.68;66.23;99348.62;4420207;32;33842;-80
2023/12/03 00:15:00;;;;;;;;;;;;;;;1.78;66.53;99365.47;4407526;32;33784;-80
2023/12/03 00:17:27;;;;;;;;;;;;;;;1.84;66.09;99370.16;4421461;32;33682;-80
2023/12/03 00:19:55;;;;;;;;;;;;;;;1.74;66.12;99379.69;4405614;32;34629;-80
2023/12/03 00:22:22;;;;;;;;;;;;;;;1.76;66.26;99367.91;4422988;32;34060;-80
2023/12/03 00:24:50;;;;;;;;;;;;;;;1.71;66.78;99389.66;4409365;32;34030;-80
2023/12/03 00:27:17;;;;;;;;;;;;;;;1.75;66.27;99395.88;4423101;32;34925;-80
2023/12/03 00:29:44;;;;;;;;;;;;;;;1.57;66.35;99403.09;4417155;32;34067;-80
2023/12/03 00:32:12;;;;;;;;;;;;;;;1.77;65.89;99419.88;4420183;32;33781;-80
2023/12/03 00:34:39;;;;;;;;;;;;;;;1.74;65.80;99427.31;4412096;32;34167;-80
2023/12/03 00:37:06;;;;;;;;;;;;;;;1.75;66.12;99442.72;4401054;32;33978;-80
2023/12/03 00:39:34;;;;;;;;;;;;;;;1.81;65.94;99451.63;4421872;32;34257;-80
2023/12/03 00:42:01;;;;;;;;;;;;;;;1.89;65.53;99435.19;4421382;32;33977;-80
2023/12/03 00:44:28;;;;;;;;;;;;;;;2.04;64.84;99451.63;4422655;32;33940;-80
2023/12/03 00:46:56;;;;;;;;;;;;;;;2.00;65.01;99441.97;4418765;32;34638;-80
2023/12/03 00:49:23;;;;;;;;;;;;;;;1.91;64.81;99464.28;4412961;32;33790;-80
2023/12/03 00:51:50;;;;;;;;;;;;;;;1.96;64.93;99468.06;4419070;32;33263;-80
2023/12/03 00:54:18;;;;;;;;;;;;;;;1.83;65.17;99470.50;4410767;32;34160;-80
2023/12/03 00:56:45;;;;;;;;;;;;;;;1.98;64.66;99486.97;4422982;32;34868;-80
2023/12/03 00:59:12;;;;;;;;;;;;;;;2.20;63.63;99499.63;4417290;32;34278;-80
2023/12/03 01:01:40;;;;;;;;;;;;;;;2.08;64.07;99509.84;4419553;32;33061;-80
2023/12/03 01:04:07;;;;;;;;;;;;;;;1.89;64.41;99507.63;4418360;32;34605;-80
2023/12/03 01:06:34;;;;;;;;;;;;;;;2.12;63.84;99506.72;4418882;32;35588;-80
2023/12/03 01:09:02;;;;;;;;;;;;;;;1.88;64.24;99510.06;4412977;32;34018;-80
2023/12/03 01:11:29;;;;;;;;;;;;;;;1.76;64.58;99516.03;4410438;32;33505;-79
2023/12/03 01:14:03;;;;;;;;;;;;;;;1.85;64.44;99525.12;4422504;32;35135;-80
2023/12/03 01:16:31;;;;;;;;;;;;;;;2.06;63.61;99516.50;4422723;32;34159;-80
2023/12/03 01:18:58;;;;;;;;;;;;;;;2.17;63.26;99528.41;4411286;32;34323;-80
2023/12/03 01:21:26;;;;;;;;;;;;;;;2.19;63.46;99525.09;4419681;32;33457;-80
2023/12/03 01:23:53;;;;;;;;;;;;;;;2.23;62.86;99534.75;4411209;32;34928;-80
2023/12/03 01:26:21;;;;;;;;;;;;;;;2.04;63.21;99535.94;4421149;32;33713;-80
2023/12/03 01:28:48;;;;;;;;;;;;;;;2.40;62.45;99541.09;4419341;32;32979;-80
2023/12/03 01:31:16;;;;;;;;;;;;;;;2.21;62.53;99528.66;4415932;32;33844;-80
2023/12/03 01:33:43;;;;;;;;;;;;;;;2.26;62.53;99525.66;4422555;32;33662;-80
2023/12/03 01:36:11;;;;;;;;;;;;;;;2.16;62.74;99534.31;4415220;32;34805;-80
2023/12/03 01:38:38;;;;;;;;;;;;;;;2.16;62.71;99523.19;4416860;32;33769;-80
2023/12/03 01:41:05;;;;;;;;;;;;;;;2.27;62.46;99536.75;4420466;32;34247;-80
2023/12/03 01:43:33;;;;;;;;;;;;;;;2.13;63.04;99535.75;4406714;32;33971;-80
2023/12/03 01:46:00;;;;;;;;;;;;;;;2.16;63.05;99539.41;4417908;32;34806;-80
2023/12/03 01:48:27;;;;;;;;;;;;;;;1.98;63.86;99553.38;4418306;32;34355;-81
2023/12/03 01:50:55;;;;;;;;;;;;;;;1.92;64.02;99545.25;4407279;32;32720;-80
2023/12/03 01:53:22;;;;;;;;;;;;;;;1.94;64.03;99556.47;4402767;32;34141;-80
2023/12/03 01:55:50;;;;;;;;;;;;;;;1.89;63.83;99550.13;4411186;32;33691;-80
2023/12/03 01:58:17;;;;;;;;;;;;;;;1.61;64.68;99560.81;4406585;32;33920;-79
2023/12/03 02:00:44;;;;;;;;;;;;;;;1.36;65.50;99558.06;4402764;32;33477;-79
2023/12/03 02:03:15;;;;;;;;;;;;;;;1.52;65.72;99572.88;4418204;32;33872;-79
2023/12/03 02:05:47;;;;;;;;;;;;;;;1.36;65.63;99587.03;4419345;32;35041;-79
2023/12/03 02:08:14;;;;;;;;;;;;;;;1.41;65.42;99576.28;4404318;32;34327;-79
2023/12/03 02:10:42;;;;;;;;;;;;;;;1.59;65.09;99587.91;4418975;32;33233;-80
2023/12/03 02:13:09;;;;;;;;;;;;;;;1.18;65.97;99583.06;4396093;32;32402;-79
2023/12/03 02:15:36;;;;;;;;;;;;;;;1.43;65.38;99590.03;4416816;32;34492;-79
2023/12/03 02:18:04;;;;;;;;;;;;;;;1.33;65.67;99589.34;4421238;32;34784;-79
2023/12/03 02:20:31;;;;;;;;;;;;;;;1.26;65.89;99597.28;4420865;32;33504;-79
2023/12/03 02:22:59;;;;;;;;;;;;;;;1.46;65.21;99613.25;4409148;32;34004;-80
2023/12/03 02:25:27;;;;;;;;;;;;;;;1.29;65.32;99628.13;4420107;32;34264;-79
2023/12/03 02:27:54;;;;;;;;;;;;;;;1.35;65.34;99633.75;4416043;32;34232;-80
2023/12/03 02:30:21;;;;;;;;;;;;;;;1.34;65.34;99639.59;4399127;32;31825;-79
2023/12/03 02:32:49;;;;;;;;;;;;;;;1.24;65.36;99651.53;4417098;32;34042;-79
2023/12/03 02:35:16;;;;;;;;;;;;;;;1.22;65.23;99648.84;4419579;32;34238;-80
2023/12/03 02:37:44;;;;;;;;;;;;;;;1.45;64.68;99659.97;4415526;32;34019;-80
2023/12/03 02:40:11;;;;;;;;;;;;;;;1.52;64.26;99649.47;4418624;32;33502;-79
2023/12/03 02:42:39;;;;;;;;;;;;;;;1.29;64.71;99648.53;4417880;32;33874;-80
2023/12/03 02:45:07;;;;;;;;;;;;;;;1.27;65.39;99650.09;4405281;32;34172;-80
2023/12/03 02:47:34;;;;;;;;;;;;;;;1.36;64.94;99650.81;4418356;32;34867;-80
2023/12/03 02:50:01;;;;;;;;;;;;;;;1.21;65.21;99664.03;4421429;32;33247;-80
2023/12/03 02:52:29;;;;;;;;;;;;;;;1.41;64.82;99686.03;4421736;32;34748;-80
2023/12/03 02:54:57;;;;;;;;;;;;;;;1.38;64.86;99690.13;4404212;32;33871;-80
2023/12/03 02:57:24;;;;;;;;;;;;;;;1.33;64.72;99716.03;4417668;32;33974;-80
2023/12/03 02:59:51;;;;;;;;;;;;;;;1.52;64.19;99718.37;4420562;32;33497;-80
2023/12/03 03:02:19;;;;;;;;;;;;;;;1.33;64.44;99732.25;4420090;32;33892;-80
2023/12/03 03:04:46;;;;;;;;;;;;;;;1.12;64.88;99736.53;4420199;32;34881;-80
2023/12/03 03:07:13;;;;;;;;;;;;;;;1.46;64.04;99739.22;4406509;32;33577;-80
2023/12/03 03:09:41;;;;;;;;;;;;;;;1.16;64.78;99727.47;4413072;32;34026;-80
2023/12/03 03:12:08;;;;;;;;;;;;;;;0.70;65.63;99733.94;4412439;32;33670;-79
2023/12/03 03:14:35;;;;;;;;;;;;;;;0.87;65.56;99759.16;4418755;32;34953;-80
2023/12/03 03:17:03;;;;;;;;;;;;;;;1.35;64.01;99776.66;4412641;32;35869;-79
2023/12/03 03:19:30;;;;;;;;;;;;;;;1.36;63.78;99780.97;4415851;32;33222;-79
2023/12/03 03:21:57;;;;;;;;;;;;;;;1.31;63.49;99783.94;4412025;32;33769;-79
2023/12/03 03:24:25;;;;;;;;;;;;;;;1.36;63.74;99783.53;4419017;32;34916;-80
2023/12/03 03:26:52;;;;;;;;;;;;;;;1.46;63.33;99802.16;4415250;32;34680;-80
2023/12/03 03:29:19;;;;;;;;;;;;;;;1.27;63.37;99803.19;4421168;32;33480;-79
2023/12/03 03:31:47;;;;;;;;;;;;;;;1.47;63.35;99806.47;4409219;32;33891;-80
2023/12/03 03:34:14;;;;;;;;;;;;;;;1.10;63.70;99803.47;4415538;32;34126;-80
2023/12/03 03:36:41;;;;;;;;;;;;;;;0.93;64.06;99815.75;4415862;32;35067;-80
2023/12/03 03:39:09;;;;;;;;;;;;;;;0.90;63.95;99814.59;4401038;32;32731;-79
2023/12/03 03:41:36;;;;;;;;;;;;;;;0.92;63.90;99834.34;4418562;32;34620;-80
2023/12/03 03:44:03;;;;;;;;;;;;;;;1.10;63.57;99829.00;4422712;32;34031;-79
2023/12/03 03:46:31;;;;;;;;;;;;;;;1.06;63.40;99832.94;4417444;32;33419;-80
2023/12/03 03:48:58;;;;;;;;;;;;;;;1.11;62.90;99841.00;4418547;32;33384;-80
2023/12/03 03:51:25;;;;;;;;;;;;;;;1.13;62.66;99854.78;4416822;32;34189;-80
2023/12/03 03:53:53;;;;;;;;;;;;;;;1.24;62.22;99853.12;4377885;32;32547;-80
2023/12/03 03:56:21;;;;;;;;;;;;;;;1.20;62.33;99851.97;4413028;32;34026;-80
2023/12/03 03:58:48;;;;;;;;;;;;;;;1.33;61.88;99864.97;4419602;32;32653;-80
2023/12/03 04:01:16;;;;;;;;;;;;;;;1.04;62.72;99879.50;4408885;32;34034;-80
2023/12/03 04:03:44;;;;;;;;;;;;;;;0.93;62.11;99871.87;4419643;32;34116;-80
2023/12/03 04:06:11;;;;;;;;;;;;;;;1.10;62.03;99880.00;4419896;32;34028;-80
2023/12/03 04:08:39;;;;;;;;;;;;;;;1.24;61.76;99879.50;4420191;32;33031;-79
2023/12/03 04:11:06;;;;;;;;;;;;;;;1.02;62.09;99878.50;4417119;32;34139;-79
2023/12/03 04:13:33;;;;;;;;;;;;;;;1.26;61.68;99882.19;4418021;32;34258;-80
2023/12/03 04:16:01;;;;;;;;;;;;;;;1.00;62.01;99882.56;4422757;32;33651;-79
2023/12/03 04:18:28;;;;;;;;;;;;;;;0.97;62.14;99884.09;4419584;32;33702;-80
2023/12/03 04:20:55;;;;;;;;;;;;;;;0.84;62.44;99904.25;4403717;32;33349;-79
2023/12/03 04:23:23;;;;;;;;;;;;;;;0.80;62.75;99899.66;4418641;32;34002;-79
2023/12/03 04:25:50;;;;;;;;;;;;;;;1.08;61.92;99894.31;4422728;32;34177;-79
2023/12/03 04:28:17;;;;;;;;;;;;;;;1.11;61.61;99907.31;4415116;32;33360;-80
2023/12/03 04:30:44;;;;;;;;;;;;;;;0.90;62.09;99917.50;4403240;32;32331;-79
2023/12/03 04:33:12;;;;;;;;;;;;;;;0.83;62.64;99935.62;4411129;32;32522;-80
2023/12/03 04:35:40;;;;;;;;;;;;;;;0.64;62.79;99922.94;4422853;32;34167;-79
2023/12/03 04:38:08;;;;;;;;;;;;;;;0.71;62.83;99921.81;4412369;32;33414;-80
2023/12/03 04:40:35;;;;;;;;;;;;;;;0.57;62.96;99921.50;4415858;32;34639;-80
2023/12/03 04:43:02;;;;;;;;;;;;;;;0.62;63.01;99918.47;4421284;32;34630;-79
2023/12/03 04:45:31;;;;;;;;;;;;;;;0.76;62.92;99928.19;4416793;32;34180;-80
2023/12/03 04:47:58;;;;;;;;;;;;;;;0.87;62.68;99926.53;4420662;32;33313;-79
2023/12/03 04:50:25;;;;;;;;;;;;;;;0.74;62.52;99927.19;4419385;32;34832;-80
2023/12/03 04:52:53;;;;;;;;;;;;;;;0.77;62.30;99935.06;4409328;32;33948;-80
2023/12/03 04:55:20;;;;;;;;;;;;;;;0.83;62.05;99940.72;4414432;32;34866;-79
2023/12/03 04:57:47;;;;;;;;;;;;;;;1.05;61.37;99940.87;4418805;32;33689;-79
2023/12/03 05:00:15;;;;;;;;;;;;;;;0.94;61.50;99941.59;4419104;32;34849;-79
2023/12/03 05:02:43;;;;;;;;;;;;;;;0.97;61.95;99952.97;4415147;32;34784;-79
2023/12/03 05:05:10;;;;;;;;;;;;;;;0.83;61.69;99940.72;4421016;32;34151;-79
2023/12/03 05:07:38;;;;;;;;;;;;;;;0.71;61.60;99954.94;4404315;32;33002;-79
2023/12/03 05:10:06;;;;;;;;;;;;;;;0.59;62.11;99977.72;4416156;32;34061;-79
2023/12/03 05:12:34;;;;;;;;;;;;;;;0.61;61.53;99982.97;4406595;32;34759;-79
2023/12/03 05:15:01;;;;;;;;;;;;;;;0.66;61.54;99987.72;4414060;32;33886;-79
2023/12/03 05:17:29;;;;;;;;;;;;;;;0.64;61.20;99988.31;4415260;32;33134;-79
2023/12/03 05:19:56;;;;;;;;;;;;;;;0.46;61.48;99987.63;4421087;32;33878;-79
2023/12/03 05:22:24;;;;;;;;;;;;;;;0.31;61.92;99974.41;4421467;32;34906;-79
2023/12/03 05:24:51;;;;;;;;;;;;;;;0.36;61.90;99996.13;4406098;32;34774;-80
2023/12/03 05:27:18;;;;;;;;;;;;;;;0.61;61.10;99995.72;4400985;32;34031;-80
2023/12/03 05:29:46;;;;;;;;;;;;;;;0.47;60.83;99999.63;4421144;32;33764;-79
2023/12/03 05:32:14;;;;;;;;;;;;;;;0.56;60.56;100008.03;4410536;32;34086;-80
2023/12/03 05:34:45;;;;;;;;;;;;;;;0.71;59.99;100005.94;4416610;32;33893;-79
2023/12/03 05:37:12;;;;;;;;;;;;;;;0.67;60.19;100009.00;4418669;32;33846;-79
2023/12/03 05:39:41;;;;;;;;;;;;;;;0.63;60.15;100020.56;4406778;32;33858;-79
2023/12/03 05:42:09;;;;;;;;;;;;;;;0.73;59.61;100024.81;4412173;32;34706;-79
2023/12/03 05:44:36;;;;;;;;;;;;;;;0.68;59.42;100015.88;4417452;32;34084;-79
2023/12/03 05:47:03;;;;;;;;;;;;;;;0.29;60.30;100035.47;4413017;32;34334;-79
2023/12/03 05:49:31;;;;;;;;;;;;;;;0.51;60.13;100033.13;4406607;32;33850;-79
2023/12/03 05:51:58;;;;;;;;;;;;;;;0.78;59.35;100043.97;4418172;32;33583;-79
2023/12/03 05:54:26;;;;;;;;;;;;;;;0.40;59.88;100044.03;4417400;32;33924;-79
2023/12/03 05:56:53;;;;;;;;;;;;;;;0.45;59.90;100047.91;4420121;32;33306;-79
2023/12/03 05:59:22;;;;;;;;;;;;;;;0.45;59.94;100047.91;4410149;32;34030;-79
2023/12/03 06:01:50;;;;;;;;;;;;;;;0.46;59.95;100049.66;4407573;32;35051;-79
2023/12/03 06:04:18;;;;;;;;;;;;;;;0.66;59.42;100046.34;4412746;32;33026;-79
2023/12/03 06:06:45;;;;;;;;;;;;;;;0.31;59.76;100054.31;4416308;32;33434;-79
2023/12/03 06:09:12;;;;;;;;;;;;;;;0.24;60.25;100061.28;4418685;32;34702;-79
2023/12/03 06:11:40;;;;;;;;;;;;;;;0.33;60.12;100077.41;4411715;32;34206;-79
2023/12/03 06:14:07;;;;;;;;;;;;;;;0.41;59.64;100071.31;4415387;32;33735;-79
2023/12/03 06:16:34;;;;;;;;;;;;;;;0.36;59.46;100067.47;4416511;32;33343;-80
2023/12/03 06:19:02;;;;;;;;;;;;;;;0.52;59.40;100080.81;4417458;32;33918;-79
2023/12/03 06:21:29;;;;;;;;;;;;;;;0.37;59.40;100089.66;4417374;32;33762;-79
2023/12/03 06:23:57;;;;;;;;;;;;;;;0.34;59.26;100079.19;4408605;32;34734;-79
2023/12/03 06:26:24;;;;;;;;;;;;;;;0.06;60.15;100081.81;4382088;32;33041;-79
2023/12/03 06:28:51;;;;;;;;;;;;;;;0.29;59.51;100096.62;4398243;32;32643;-79
2023/12/03 06:31:18;;;;;;;;;;;;;;;0.50;59.04;100095.09;4411037;32;35018;-79
2023/12/03 06:33:46;;;;;;;;;;;;;;;0.41;59.17;100107.00;4416259;32;33801;-79
2023/12/03 06:36:14;;;;;;;;;;;;;;;0.40;59.15;100100.09;4414444;32;34360;-79
2023/12/03 06:38:41;;;;;;;;;;;;;;;0.57;58.61;100106.72;4395537;32;33494;-79
2023/12/03 06:41:08;;;;;;;;;;;;;;;0.47;58.52;100104.09;4413028;32;34250;-80
2023/12/03 06:43:36;;;;;;;;;;;;;;;0.39;58.83;100111.06;4415332;32;34912;-79
2023/12/03 06:46:03;;;;;;;;;;;;;;;0.29;58.94;100121.16;4412888;32;32539;-80
2023/12/03 06:48:30;;;;;;;;;;;;;;;0.15;59.18;100123.38;4417074;32;34216;-79
2023/12/03 06:50:58;;;;;;;;;;;;;;;0.26;59.78;100131.09;4415916;32;35106;-79
2023/12/03 06:53:25;;;;;;;;;;;;;;;0.19;59.76;100135.66;4407699;32;34058;-79
2023/12/03 06:55:52;;;;;;;;;;;;;;;0.34;59.84;100140.31;4415045;32;33220;-79
2023/12/03 06:58:19;;;;;;;;;;;;;;;0.24;59.68;100140.25;4408102;32;32834;-79
2023/12/03 07:00:47;;;;;;;;;;;;;;;0.39;59.33;100145.09;4415166;32;34767;-79
2023/12/03 07:03:14;;;;;;;;;;;;;;;0.34;59.72;100145.44;4415400;32;33958;-80
2023/12/03 07:05:42;;;;;;;;;;;;;;;0.25;59.44;100147.12;4419047;32;32918;-79
2023/12/03 07:08:09;;;;;;;;;;;;;;;0.29;59.56;100147.56;4415528;32;34793;-79
2023/12/03 07:10:36;;;;;;;;;;;;;;;0.29;59.55;100169.59;4408165;32;33816;-79
2023/12/03 07:13:04;;;;;;;;;;;;;;;0.26;59.44;100176.97;4412153;32;34922;-78
2023/12/03 07:15:31;;;;;;;;;;;;;;;0.26;59.79;100182.94;4412062;32;32345;-78
2023/12/03 07:17:59;;;;;;;;;;;;;;;0.55;58.91;100193.22;4411975;32;34896;-78
2023/12/03 07:20:26;;;;;;;;;;;;;;;0.43;59.01;100193.78;4415808;32;34009;-79
2023/12/03 07:22:55;;;;;;;;;;;;;;;0.55;58.95;100187.25;4418097;32;34274;-79
2023/12/03 07:25:23;;;;;;;;;;;;;;;0.54;58.55;100211.84;4414165;32;33391;-79
2023/12/03 07:27:50;;;;;;;;;;;;;;;0.39;59.10;100213.00;4411390;32;34136;-78
2023/12/03 07:30:17;;;;;;;;;;;;;;;0.50;59.06;100212.34;4410427;32;33829;-79
2023/12/03 07:32:44;;;;;;;;;;;;;;;0.48;59.24;100216.37;4416440;32;34204;-79
2023/12/03 07:35:12;;;;;;;;;;;;;;;0.59;58.98;100213.16;4418091;32;32880;-79
2023/12/03 07:37:40;;;;;;;;;;;;;;;0.42;59.09;100225.12;4414416;32;34886;-79
2023/12/03 07:40:09;;;;;;;;;;;;;;;0.69;58.36;100234.38;4410306;32;33880;-78
2023/12/03 07:42:36;;;;;;;;;;;;;;;0.56;58.59;100240.94;4413652;32;34067;-78
2023/12/03 07:45:04;;;;;;;;;;;;;;;0.57;58.40;100241.81;4414481;32;35441;-79
2023/12/03 07:47:31;;;;;;;;;;;;;;;0.54;58.81;100257.75;4413952;32;33997;-78
2023/12/03 07:49:59;;;;;;;;;;;;;;;0.70;58.09;100264.22;4411503;32;34294;-78
2023/12/03 07:52:26;;;;;;;;;;;;;;;0.78;57.97;100273.47;4412832;32;32759;-78
2023/12/03 07:54:54;;;;;;;;;;;;;;;0.88;57.94;100270.97;4408732;32;33182;-77
2023/12/03 07:57:21;;;;;;;;;;;;;;;1.28;56.87;100269.47;4413877;32;32718;-77
2023/12/03 07:59:48;;;;;;;;;;;;;;;1.32;56.67;100265.53;4412742;32;34243;-77
2023/12/03 08:02:16;;;;;;;;;;;;;;;1.46;56.00;100264.19;4412438;32;34747;-77
2023/12/03 08:04:43;;;;;;;;;;;;;;;1.45;56.17;100263.28;4413417;32;33518;-79
2023/12/03 08:07:14;;;;;;;;;;;;;;;1.18;57.21;100266.84;4415297;32;34686;-78
2023/12/03 08:09:42;;;;;;;;;;;;;;;1.29;57.08;100261.03;4414065;32;33897;-78
2023/12/03 08:12:09;;;;;;;;;;;;;;;1.11;57.71;100267.06;4414480;32;33910;-78
2023/12/03 08:14:37;;;;;;;;;;;;;;;1.22;57.55;100268.91;4416410;32;33457;-77
2023/12/03 08:17:04;;;;;;;;;;;;;;;0.97;58.71;100274.37;4417556;32;34779;-77
2023/12/03 08:19:31;;;;;;;;;;;;;;;0.86;58.22;100272.50;4420330;32;34899;-77
2023/12/03 08:21:59;;;;;;;;;;;;;;;0.93;58.24;100279.94;4418988;32;33550;-77
2023/12/03 08:24:27;;;;;;;;;;;;;;;1.05;57.70;100280.16;4410893;32;34199;-78
2023/12/03 08:26:54;;;;;;;;;;;;;;;0.70;58.35;100284.63;4400999;32;34155;-78
2023/12/03 08:29:22;;;;;;;;;;;;;;;0.67;58.25;100274.13;4410018;32;34162;-77
2023/12/03 08:31:49;;;;;;;;;;;;;;;0.80;57.78;100306.75;4415883;32;33636;-77
2023/12/03 08:34:18;;;;;;;;;;;;;;;0.89;57.36;100300.84;4403717;32;33924;-78
2023/12/03 08:36:45;;;;;;;;;;;;;;;0.94;57.21;100302.13;4409075;32;33954;-78
2023/12/03 08:39:12;;;;;;;;;;;;;;;1.06;57.07;100289.59;4420349;32;33975;-76
2023/12/03 08:41:40;;;;;;;;;;;;;;;0.98;57.25;100304.22;4414657;32;34420;-77
2023/12/03 08:44:07;;;;;;;;;;;;;;;0.78;57.11;100291.31;4416132;32;33999;-76
2023/12/03 08:46:34;;;;;;;;;;;;;;;0.76;57.50;100301.37;4420435;32;34304;-76
2023/12/03 08:49:02;;;;;;;;;;;;;;;1.13;56.11;100293.59;4417634;32;33985;-77
2023/12/03 08:51:29;;;;;;;;;;;;;;;0.96;56.25;100285.31;4415025;32;34814;-77
2023/12/03 08:53:57;;;;;;;;;;;;;;;0.72;56.91;100275.47;4421139;32;32991;-77
2023/12/03 08:56:24;;;;;;;;;;;;;;;0.63;57.15;100272.97;4418864;32;34088;-76
2023/12/03 08:58:52;;;;;;;;;;;;;;;0.49;56.92;100299.75;4417549;32;33705;-77
2023/12/03 09:01:20;;;;;;;;;;;;;;;0.56;57.54;100319.94;4414289;32;34966;-76
2023/12/03 09:03:49;;;;;;;;;;;;;;;0.83;56.93;100333.44;4414763;32;32986;-76
2023/12/03 09:06:17;;;;;;;;;;;;;;;0.86;56.61;100333.72;4420430;32;34256;-76
2023/12/03 09:08:44;;;;;;;;;;;;;;;1.11;55.67;100334.28;4416261;32;33624;-74
2023/12/03 09:11:11;;;;;;;;;;;;;;;1.22;55.64;100329.25;4421946;32;34253;-76
2023/12/03 09:13:39;;;;;;;;;;;;;;;0.88;55.88;100336.41;4412904;32;33295;-74
2023/12/03 09:16:06;;;;;;;;;;;;;;;1.30;55.99;100346.16;4421244;32;34353;-76
2023/12/03 09:18:38;;;;;;;;;;;;;;;1.27;54.99;100325.47;4417035;32;33953;-75
2023/12/03 09:21:11;;;;;;;;;;;;;;;1.30;55.02;100344.50;4414263;32;33794;-79
2023/12/03 09:23:39;;;;;;;;;;;;;;;1.28;54.67;100346.03;4420489;32;33830;-77
2023/12/03 09:26:06;;;;;;;;;;;;;;;1.43;54.48;100340.47;4420942;32;34771;-77
2023/12/03 09:28:34;;;;;;;;;;;;;;;1.32;54.40;100358.28;4416680;32;34199;-78
2023/12/03 09:31:02;;;;;;;;;;;;;;;1.71;53.83;100364.28;4417189;32;34634;-77
2023/12/03 09:33:29;;;;;;;;;;;;;;;1.67;54.18;100365.66;4400707;32;32915;-76
2023/12/03 09:35:57;;;;;;;;;;;;;;;1.81;53.70;100360.88;4415861;32;33973;-79
2023/12/03 09:38:24;;;;;;;;;;;;;;;2.32;54.28;100358.53;4416346;32;34166;-78
2023/12/03 09:40:52;;;;;;;;;;;;;;;2.31;52.80;100360.16;4414689;32;34059;-77
2023/12/03 09:43:19;;;;;;;;;;;;;;;2.16;52.28;100351.16;4394377;32;34085;-77
2023/12/03 09:45:47;;;;;;;;;;;;;;;1.81;53.41;100337.88;4405631;32;33989;-77
2023/12/03 09:48:14;;;;;;;;;;;;;;;1.56;53.97;100358.69;4413485;32;34814;-78
2023/12/03 09:50:42;;;;;;;;;;;;;;;1.64;53.76;100344.03;4420114;32;34746;-78
2023/12/03 09:53:10;;;;;;;;;;;;;;;1.44;54.46;100337.19;4407318;32;33158;-76
2023/12/03 09:55:39;;;;;;;;;;;;;;;1.44;54.64;100362.72;4417856;32;33961;-79
2023/12/03 09:58:10;;;;;;;;;;;;;;;1.36;55.06;100388.44;4414069;32;34286;-79
2023/12/03 10:00:39;;;;;;;;;;;;;;;1.54;54.19;100385.75;4388140;32;34106;-77
2023/12/03 10:03:08;;;;;;;;;;;;;;;1.73;53.91;100384.06;4410589;32;33411;-80
2023/12/03 10:05:35;;;;;;;;;;;;;;;1.81;53.96;100359.19;4409926;32;33901;-79
2023/12/03 10:08:04;;;;;;;;;;;;;;;1.79;53.45;100362.41;4411575;32;34149;-79
2023/12/03 10:10:32;;;;;;;;;;;;;;;1.70;54.29;100368.50;4411845;32;34125;-77
2023/12/03 10:12:59;;;;;;;;;;;;;;;1.67;54.01;100363.09;4401364;32;32046;-80
2023/12/03 10:15:27;;;;;;;;;;;;;;;1.86;53.56;100377.50;4402498;32;33046;-79
2023/12/03 10:17:55;;;;;;;;;;;;;;;1.84;53.70;100369.69;4411276;32;34783;-77
2023/12/03 10:20:24;;;;;;;;;;;;;;;2.13;53.14;100377.38;4412629;32;36243;-77
2023/12/03 10:22:56;;;;;;;;;;;;;;;2.20;53.26;100383.00;4402559;32;33176;-77
2023/12/03 10:25:25;;;;;;;;;;;;;;;2.60;52.33;100381.34;4400542;32;34678;-77
2023/12/03 10:27:53;;;;;;;;;;;;;;;2.30;52.72;100386.50;4403237;32;32889;-78
2023/12/03 10:30:21;;;;;;;;;;;;;;;1.95;52.83;100380.84;4414937;32;33963;-79
2023/12/03 10:32:48;;;;;;;;;;;;;;;2.04;53.69;100366.34;4414630;32;33200;-80
2023/12/03 10:35:15;;;;;;;;;;;;;;;2.15;54.23;100380.94;4407160;32;34864;-79
2023/12/03 10:37:47;;;;;;;;;;;;;;;2.15;54.29;100374.94;4401799;32;33835;-78
2023/12/03 10:40:15;;;;;;;;;;;;;;;2.22;53.62;100376.37;4413512;32;35148;-76
2023/12/03 10:42:43;;;;;;;;;;;;;;;1.75;54.21;100356.13;4416649;32;33422;-77
2023/12/03 10:45:11;;;;;;;;;;;;;;;1.80;55.07;100353.94;4419461;32;34225;-80
2023/12/03 10:47:39;;;;;;;;;;;;;;;1.84;54.79;100350.94;4401298;32;33275;-80
2023/12/03 10:50:06;;;;;;;;;;;;;;;1.80;55.05;100352.31;4416671;32;34839;-79
2023/12/03 10:52:38;;;;;;;;;;;;;;;1.55;55.69;100362.03;4409767;32;33985;-76
2023/12/03 10:55:06;;;;;;;;;;;;;;;1.65;56.13;100369.72;4401758;32;33462;-77
2023/12/03 10:57:41;;;;;;;;;;;;;;;1.53;56.10;100374.66;4401944;32;34145;-78
2023/12/03 11:00:09;;;;;;;;;;;;;;;1.71;55.72;100374.47;4396069;32;34718;-78
2023/12/03 11:02:47;;;;;;;;;;;;;;;1.91;54.89;100381.34;4404494;32;34910;-80
2023/12/03 11:05:25;;;;;;;;;;;;;;;2.33;54.58;100396.09;4400416;32;34602;-80
2023/12/03 11:07:53;;;;;;;;;;;;;;;2.40;54.12;100398.44;4411510;32;33579;-77
2023/12/03 11:10:20;;;;;;;;;;;;;;;2.26;53.35;100402.34;4419444;32;35100;-77
2023/12/03 11:12:47;;;;;;;;;;;;;;;2.32;53.39;100397.75;4410964;32;33762;-77
2023/12/03 11:15:15;;;;;;;;;;;;;;;2.49;52.87;100396.66;4415502;32;34748;-78
2023/12/03 11:17:44;;;;;;;;;;;;;;;2.50;53.29;100388.22;4416521;32;34248;-78
2023/12/03 11:20:15;;;;;;;;;;;;;;;2.38;53.67;100405.06;4395957;32;33844;-79
2023/12/03 11:23:02;;;;;;;;;;;;;;;2.48;53.73;100392.31;4410186;32;33456;-78
2023/12/03 11:25:33;;;;;;;;;;;;;;;2.34;54.35;100408.12;4421105;32;34063;-81
2023/12/03 11:28:01;;;;;;;;;;;;;;;2.38;53.70;100420.41;4422253;32;34738;-80
2023/12/03 11:30:39;;;;;;;;;;;;;;;2.06;54.05;100410.81;4417734;32;33971;-79
2023/12/03 11:33:09;;;;;;;;;;;;;;;2.28;54.13;100428.00;4416979;32;33339;-80
2023/12/03 11:35:38;;;;;;;;;;;;;;;2.34;53.80;100437.13;4414975;32;34145;-78
2023/12/03 11:38:07;;;;;;;;;;;;;;;2.56;53.47;100433.87;4420700;32;34308;-77
2023/12/03 11:40:35;;;;;;;;;;;;;;;2.81;53.02;100429.22;4415549;32;34963;-79
2023/12/03 11:43:03;;;;;;;;;;;;;;;2.60;53.00;100445.28;4399724;32;33657;-77
2023/12/03 11:45:30;;;;;;;;;;;;;;;2.53;53.28;100442.19;4415662;32;34687;-76
2023/12/03 11:48:10;;;;;;;;;;;;;;;2.59;52.96;100446.03;4419339;32;34471;-78
2023/12/03 11:50:39;;;;;;;;;;;;;;;2.69;53.12;100449.53;4407171;32;33453;-77
2023/12/03 11:53:07;;;;;;;;;;;;;;;2.82;52.53;100451.50;4406951;32;34164;-81
2023/12/03 11:55:35;;;;;;;;;;;;;;;2.80;52.63;100445.34;4417368;32;34007;-78
2023/12/03 11:58:04;;;;;;;;;;;;;;;3.15;52.15;100452.56;4411409;32;34232;-76
2023/12/03 12:00:32;;;;;;;;;;;;;;;2.92;52.08;100440.37;4407220;32;34782;-80
2023/12/03 12:03:00;;;;;;;;;;;;;;;2.93;52.38;100445.59;4413799;32;33291;-80
2023/12/03 12:05:28;;;;;;;;;;;;;;;3.10;51.21;100448.72;4415642;32;34743;-80
2023/12/03 12:08:02;;;;;;;;;;;;;;;3.21;51.71;100442.84;4405276;32;34830;-77
2023/12/03 12:10:31;;;;;;;;;;;;;;;2.84;51.90;100443.91;4410196;32;34045;-79
2023/12/03 12:12:59;;;;;;;;;;;;;;;2.72;51.59;100446.31;4392325;32;33366;-77
2023/12/03 12:15:26;;;;;;;;;;;;;;;2.74;51.75;100432.91;4415530;32;34738;-79
2023/12/03 12:17:54;;;;;;;;;;;;;;;2.70;52.12;100437.63;4412787;32;34073;-79
2023/12/03 12:20:25;;;;;;;;;;;;;;;3.10;51.77;100447.03;4406535;32;34968;-79
2023/12/03 12:22:52;;;;;;;;;;;;;;;3.05;51.63;100434.59;4412946;32;33578;-79
2023/12/03 12:25:20;;;;;;;;;;;;;;;2.61;52.70;100444.50;4402979;32;33965;-80
2023/12/03 12:27:48;;;;;;;;;;;;;;;2.60;52.77;100438.50;4404765;32;33880;-79
2023/12/03 12:30:17;;;;;;;;;;;;;;;2.59;52.65;100440.91;4397291;32;34724;-77
2023/12/03 12:33:01;;;;;;;;;;;;;;;2.61;52.98;100447.06;4406624;32;33206;-80
2023/12/03 12:35:29;;;;;;;;;;;;;;;2.62;52.75;100436.06;4409571;32;34922;-79
2023/12/03 12:38:03;;;;;;;;;;;;;;;2.78;52.57;100433.16;4408249;32;34262;-79
2023/12/03 12:40:32;;;;;;;;;;;;;;;2.92;51.98;100433.59;4407316;32;34887;-77
2023/12/03 12:43:10;;;;;;;;;;;;;;;3.02;51.88;100421.56;4412877;32;33263;-78
2023/12/03 12:45:38;;;;;;;;;;;;;;;3.15;51.90;100438.09;4414621;32;33782;-77
2023/12/03 12:48:25;;;;;;;;;;;;;;;3.24;51.24;100427.72;4406562;32;34311;-77
2023/12/03 12:50:54;;;;;;;;;;;;;;;3.40;50.73;100436.66;4412533;32;34153;-80
2023/12/03 12:53:21;;;;;;;;;;;;;;;3.24;50.91;100422.59;4416396;32;33179;-80